createdAt,value
2023-03-26T00:01:59.503Z,28.73
2023-03-26T00:05:59.645Z,28.70
2023-03-26T00:09:59.788Z,28.73
2023-03-26T00:13:59.925Z,28.70
2023-03-26T00:18:00.158Z,28.73
2023-03-26T00:22:00.226Z,28.74
2023-03-26T00:26:00.391Z,28.78
2023-03-26T00:30:00.573Z,28.70
2023-03-26T00:34:00.705Z,28.73
2023-03-26T00:38:01.145Z,28.80
2023-03-26T00:42:01.082Z,28.77
2023-03-26T00:46:01.161Z,28.74
2023-03-26T00:50:01.264Z,28.71
2023-03-26T00:54:01.453Z,28.71
2023-03-26T00:58:01.571Z,28.71
2023-03-26T01:02:01.745Z,28.77
2023-03-26T01:06:02.017Z,28.73
2023-03-26T01:10:01.989Z,28.75
2023-03-26T01:14:02.103Z,28.74
2023-03-26T01:18:02.266Z,28.71
2023-03-26T01:22:02.384Z,28.78
2023-03-26T01:26:02.594Z,28.73
2023-03-26T01:30:02.673Z,28.71
2023-03-26T01:38:02.954Z,28.71
2023-03-26T01:42:03.100Z,28.67
2023-03-26T01:46:03.668Z,28.64
2023-03-26T01:50:03.464Z,28.68
2023-03-26T01:54:03.604Z,28.67
2023-03-26T01:58:03.710Z,28.65
2023-03-26T02:02:03.923Z,28.70
2023-03-26T02:06:04.014Z,28.71
2023-03-26T02:10:04.153Z,28.71
2023-03-26T02:14:04.290Z,28.76
2023-03-26T02:18:04.442Z,28.73
2023-03-26T02:22:04.598Z,28.76
2023-03-26T02:26:04.741Z,28.73
2023-03-26T02:30:04.905Z,28.71
2023-03-26T02:34:05.065Z,28.76
2023-03-26T02:38:05.186Z,28.70
2023-03-26T02:42:05.119Z,28.77
2023-03-26T02:46:05.102Z,28.74
2023-03-26T02:50:04.897Z,28.73
2023-03-26T02:54:04.812Z,28.71
2023-03-26T02:58:04.709Z,28.72
2023-03-26T03:02:04.626Z,28.65
2023-03-26T03:14:04.329Z,28.71
2023-03-26T03:18:04.235Z,28.74
2023-03-26T03:22:04.228Z,28.68
2023-03-26T03:26:04.112Z,28.71
2023-03-26T03:30:04.033Z,28.68
2023-03-26T03:34:04.050Z,28.71
2023-03-26T03:38:03.891Z,28.69
2023-03-26T03:42:03.823Z,28.70
2023-03-26T03:46:03.758Z,28.72
2023-03-26T03:50:03.630Z,28.63
2023-03-26T03:54:03.532Z,28.58
2023-03-26T03:58:03.455Z,28.65
2023-03-26T04:02:03.369Z,28.65
2023-03-26T04:06:03.279Z,28.67
2023-03-26T04:10:03.441Z,28.65
2023-03-26T04:14:03.592Z,28.63
2023-03-26T04:18:03.843Z,28.63
2023-03-26T04:22:03.889Z,28.67
2023-03-26T04:26:04.045Z,28.62
2023-03-26T04:30:04.727Z,28.59
2023-03-26T04:34:04.341Z,28.59
2023-03-26T04:38:04.501Z,28.53
2023-03-26T04:42:04.662Z,28.61
2023-03-26T04:46:04.889Z,28.61
2023-03-26T04:50:04.995Z,28.56
2023-03-26T04:54:05.078Z,28.59
2023-03-26T04:58:05.191Z,28.56
2023-03-26T05:02:05.395Z,28.61
2023-03-26T05:06:05.412Z,28.53
2023-03-26T05:10:05.537Z,28.61
2023-03-26T05:14:05.635Z,28.56
2023-03-26T05:18:05.760Z,28.58
2023-03-26T05:22:05.870Z,28.52
2023-03-26T05:26:05.985Z,28.61
2023-03-26T05:30:06.131Z,28.52
2023-03-26T05:34:06.762Z,28.50
2023-03-26T05:38:06.430Z,28.48
2023-03-26T05:42:06.597Z,28.45
2023-03-26T05:46:07.312Z,28.39
2023-03-26T05:50:06.926Z,28.34
2023-03-26T05:54:07.102Z,28.24
2023-03-26T05:58:07.301Z,28.24
2023-03-26T06:02:07.429Z,28.24
2023-03-26T06:06:07.617Z,28.26
2023-03-26T06:10:07.775Z,28.24
2023-03-26T06:14:07.945Z,28.21
2023-03-26T06:18:08.142Z,28.21
2023-03-26T06:22:08.330Z,28.18
2023-03-26T06:26:08.398Z,28.22
2023-03-26T06:30:08.788Z,28.13
2023-03-26T06:34:08.708Z,28.17
2023-03-26T06:38:08.818Z,28.09
2023-03-26T06:42:08.953Z,28.07
2023-03-26T06:46:09.096Z,28.04
2023-03-26T06:50:09.209Z,28.09
2023-03-26T06:54:09.338Z,28.09
2023-03-26T06:58:09.478Z,28.01
2023-03-26T07:02:09.368Z,28.10
2023-03-26T07:06:09.336Z,28.07
2023-03-26T07:10:09.192Z,28.06
2023-03-26T07:14:09.087Z,28.02
2023-03-26T07:18:08.991Z,28.03
2023-03-26T07:22:08.902Z,28.00
2023-03-26T07:26:08.812Z,27.97
2023-03-26T07:30:08.728Z,27.97
2023-03-26T07:34:08.630Z,27.97
2023-03-26T07:38:08.614Z,27.84
2023-03-26T07:42:08.462Z,27.80
2023-03-26T07:46:08.496Z,27.60
2023-03-26T07:50:08.524Z,27.52
2023-03-26T07:54:08.587Z,27.45
2023-03-26T07:58:08.609Z,27.47
2023-03-26T08:02:08.630Z,27.43
2023-03-26T08:06:08.634Z,27.28
2023-03-26T08:10:08.668Z,27.25
2023-03-26T08:14:08.650Z,27.31
2023-03-26T08:18:08.721Z,27.30
2023-03-26T08:22:08.640Z,27.27
2023-03-26T08:26:08.695Z,27.27
2023-03-26T08:30:08.662Z,27.34
2023-03-26T08:34:08.688Z,27.29
2023-03-26T08:38:09.010Z,27.29
2023-03-26T08:42:08.711Z,27.29
2023-03-26T08:46:08.744Z,27.31
2023-03-26T08:50:08.796Z,27.28
2023-03-26T08:54:08.790Z,27.29
2023-03-26T08:58:09.322Z,27.26
2023-03-26T09:02:08.951Z,27.23
2023-03-26T09:06:08.901Z,27.23
2023-03-26T09:10:08.934Z,27.23
2023-03-26T09:14:08.967Z,27.22
2023-03-26T09:18:09.069Z,27.19
2023-03-26T09:22:09.027Z,27.17
2023-03-26T09:26:09.036Z,27.13
2023-03-26T09:30:09.054Z,27.13
2023-03-26T09:34:09.845Z,27.13
2023-03-26T09:38:09.102Z,27.10
2023-03-26T09:42:09.174Z,27.12
2023-03-26T09:46:09.415Z,27.12
2023-03-26T09:50:09.152Z,27.15
2023-03-26T09:54:09.181Z,27.10
2023-03-26T09:58:09.292Z,27.11
2023-03-26T10:02:09.225Z,27.10
2023-03-26T10:06:09.244Z,27.10
2023-03-26T10:10:09.272Z,27.11
2023-03-26T10:14:09.374Z,27.17
2023-03-26T10:18:27.747Z,27.17
2023-03-26T10:22:10.211Z,27.15
2023-03-26T10:26:09.115Z,27.13
2023-03-26T10:30:09.018Z,27.13
2023-03-26T10:34:08.870Z,27.16
2023-03-26T10:38:09.779Z,27.07
2023-03-26T10:42:08.642Z,27.09
2023-03-26T10:46:08.564Z,27.04
2023-03-26T10:50:08.483Z,27.10
2023-03-26T10:54:08.481Z,27.09
2023-03-26T10:58:08.462Z,27.02
2023-03-26T11:02:08.482Z,27.04
2023-03-26T11:06:08.536Z,27.05
2023-03-26T11:10:08.893Z,27.14
2023-03-26T11:14:08.894Z,27.11
2023-03-26T11:18:08.942Z,27.11
2023-03-26T11:22:08.678Z,27.12
2023-03-26T11:26:08.738Z,27.20
2023-03-26T11:30:08.765Z,27.20
2023-03-26T11:34:08.819Z,27.24
2023-03-26T11:38:08.888Z,27.27
2023-03-26T11:42:09.014Z,27.31
2023-03-26T11:46:09.035Z,27.29
2023-03-26T11:50:09.068Z,27.29
2023-03-26T11:54:09.122Z,27.34
2023-03-26T11:58:10.621Z,27.40
2023-03-26T12:02:09.299Z,27.34
2023-03-26T12:06:09.335Z,27.41
2023-03-26T12:10:19.035Z,27.41
2023-03-26T12:14:10.336Z,27.47
2023-03-26T12:18:09.358Z,27.45
2023-03-26T12:22:09.157Z,27.46
2023-03-26T12:26:09.199Z,27.51
2023-03-26T12:30:09.374Z,27.49
2023-03-26T12:34:10.333Z,27.51
2023-03-26T12:38:09.597Z,27.51
2023-03-26T12:44:44.853Z,27.53
2023-03-26T12:47:54.123Z,27.55
2023-03-26T12:50:10.463Z,27.53
2023-03-26T12:54:09.374Z,27.52
2023-03-26T12:58:13.308Z,27.50
2023-03-26T13:02:09.250Z,27.50
2023-03-26T13:06:09.178Z,27.53
2023-03-26T13:10:09.100Z,27.47
2023-03-26T13:14:09.031Z,27.53
2023-03-26T13:18:09.196Z,27.55
2023-03-26T13:22:09.343Z,27.50
2023-03-26T13:26:09.460Z,27.44
2023-03-26T13:30:09.590Z,27.45
2023-03-26T13:34:09.729Z,27.44
2023-03-26T13:38:09.849Z,27.48
2023-03-26T13:42:10.906Z,27.48
2023-03-26T13:46:10.156Z,27.42
2023-03-26T13:50:10.870Z,27.44
2023-03-26T13:54:10.483Z,27.44
2023-03-26T13:58:10.651Z,27.41
2023-03-26T14:02:10.740Z,27.41
2023-03-26T14:06:10.800Z,27.44
2023-03-26T14:10:10.944Z,27.45
2023-03-26T14:14:11.070Z,27.44
2023-03-26T14:18:11.210Z,27.42
2023-03-26T14:22:11.345Z,27.47
2023-03-26T14:26:11.489Z,27.45
2023-03-26T14:30:11.620Z,27.44
2023-03-26T14:34:11.779Z,27.47
2023-03-26T14:38:11.894Z,27.42
2023-03-26T14:42:12.058Z,27.47
2023-03-26T14:46:12.260Z,27.42
2023-03-26T14:50:12.391Z,27.48
2023-03-26T14:54:12.614Z,27.51
2023-03-26T14:58:12.700Z,27.42
2023-03-26T15:02:12.917Z,27.48
2023-03-26T15:06:13.039Z,27.49
2023-03-26T15:10:13.209Z,27.52
2023-03-26T15:14:13.361Z,27.54
2023-03-26T15:18:13.559Z,27.54
2023-03-26T15:22:13.688Z,27.52
2023-03-26T15:26:13.842Z,27.57
2023-03-26T15:30:14.124Z,27.59
2023-03-26T15:34:14.170Z,27.63
2023-03-26T15:38:14.322Z,27.66
2023-03-26T15:42:14.467Z,27.58
2023-03-26T15:46:14.639Z,27.59
2023-03-26T15:50:14.784Z,27.60
2023-03-26T15:54:14.942Z,27.63
2023-03-26T15:58:15.184Z,27.63
2023-03-26T16:02:15.269Z,27.63
2023-03-26T16:06:15.414Z,27.67
2023-03-26T16:10:15.580Z,27.67
2023-03-26T16:14:15.753Z,27.68
2023-03-26T16:18:15.675Z,27.64
2023-03-26T16:22:15.587Z,27.66
2023-03-26T16:26:15.520Z,27.64
2023-03-26T16:30:15.478Z,27.68
2023-03-26T16:34:15.449Z,27.68
2023-03-26T16:38:15.381Z,27.65
2023-03-26T16:42:15.425Z,27.71
2023-03-26T16:46:15.303Z,27.73
2023-03-26T16:50:15.191Z,27.71
2023-03-26T16:54:15.522Z,27.69
2023-03-26T16:58:15.034Z,27.75
2023-03-26T17:02:15.179Z,27.77
2023-03-26T17:06:15.345Z,27.78
2023-03-26T17:10:15.521Z,27.78
2023-03-26T17:14:15.676Z,27.80
2023-03-26T17:18:16.050Z,27.80
2023-03-26T17:22:16.016Z,27.85
2023-03-26T17:26:16.187Z,27.81
2023-03-26T17:30:16.366Z,27.80
2023-03-26T17:34:16.579Z,27.80
2023-03-26T17:38:16.784Z,27.81
2023-03-26T17:42:16.961Z,27.76
2023-03-26T17:46:16.919Z,27.82
2023-03-26T17:50:16.792Z,27.82
2023-03-26T17:54:16.729Z,27.85
2023-03-26T17:58:16.676Z,27.88
2023-03-26T18:02:16.645Z,27.79
2023-03-26T18:06:16.625Z,27.83
2023-03-26T18:10:16.521Z,27.84
2023-03-26T18:14:16.438Z,27.85
2023-03-26T18:18:16.375Z,27.82
2023-03-26T18:22:16.328Z,27.80
2023-03-26T18:26:16.428Z,27.76
2023-03-26T18:30:16.614Z,27.82
2023-03-26T18:34:16.792Z,27.82
2023-03-26T18:38:16.800Z,27.82
2023-03-26T18:42:22.672Z,27.80
2023-03-26T18:46:17.641Z,27.80
2023-03-26T18:50:16.567Z,27.79
2023-03-26T18:54:16.654Z,27.80
2023-03-26T18:58:16.576Z,27.79
2023-03-26T19:02:16.623Z,27.82
2023-03-26T19:06:16.462Z,27.79
2023-03-26T19:10:16.582Z,27.77
2023-03-26T19:14:17.005Z,27.79
2023-03-26T19:18:16.371Z,27.79
2023-03-26T19:22:16.238Z,27.70
2023-03-26T19:26:16.167Z,27.73
2023-03-26T19:30:16.096Z,27.70
2023-03-26T19:34:16.034Z,27.75
2023-03-26T19:38:16.229Z,27.67
2023-03-26T19:42:16.203Z,27.64
2023-03-26T19:46:16.134Z,27.63
2023-03-26T19:50:16.054Z,27.64
2023-03-26T19:54:16.061Z,27.63
2023-03-26T19:58:15.906Z,27.63
2023-03-26T20:02:15.885Z,27.61
2023-03-26T20:06:15.769Z,27.63
2023-03-26T20:10:15.668Z,27.67
2023-03-26T20:14:15.720Z,27.63
2023-03-26T20:18:15.607Z,27.63
2023-03-26T20:22:15.509Z,27.59
2023-03-26T20:26:15.471Z,27.62
2023-03-26T20:34:15.354Z,27.55
2023-03-26T20:38:16.002Z,27.58
2023-03-26T20:42:16.125Z,27.55
2023-03-26T20:46:15.137Z,27.56
2023-03-26T20:50:15.117Z,27.58
2023-03-26T20:54:15.049Z,27.56
2023-03-26T20:58:15.016Z,27.54
2023-03-26T21:02:15.717Z,27.55
2023-03-26T21:06:14.937Z,27.56
2023-03-26T21:10:14.871Z,27.52
2023-03-26T21:14:14.803Z,27.56
2023-03-26T21:18:14.738Z,27.55
2023-03-26T21:22:14.692Z,27.56
2023-03-26T21:26:14.620Z,27.53
2023-03-26T21:30:14.725Z,27.49
2023-03-26T21:34:14.651Z,27.52
2023-03-26T21:38:14.595Z,27.55
2023-03-26T21:42:14.496Z,27.53
2023-03-26T21:46:14.479Z,27.52
2023-03-26T21:50:14.403Z,27.46
2023-03-26T21:54:14.343Z,27.53
2023-03-26T21:58:14.285Z,27.43
2023-03-26T22:02:14.211Z,27.48
2023-03-26T22:06:14.138Z,27.48
2023-03-26T22:10:14.233Z,27.48
2023-03-26T22:14:14.110Z,27.43
2023-03-26T22:18:14.020Z,27.47
2023-03-26T22:22:13.943Z,27.48
2023-03-26T22:26:13.860Z,27.46
2023-03-26T22:30:13.785Z,27.47
2023-03-26T22:34:13.710Z,27.43
2023-03-26T22:38:13.642Z,27.40
2023-03-26T22:42:13.576Z,27.40
2023-03-26T22:46:13.538Z,27.40
2023-03-26T22:50:13.486Z,27.37
2023-03-26T22:54:13.402Z,27.37
2023-03-26T22:58:13.328Z,27.37
2023-03-26T23:02:13.273Z,27.36
2023-03-26T23:06:13.194Z,27.36
2023-03-26T23:10:13.132Z,27.31
2023-03-26T23:14:13.041Z,27.34
2023-03-26T23:18:13.045Z,27.31
2023-03-26T23:22:13.181Z,27.31
2023-03-26T23:26:12.812Z,27.28
2023-03-26T23:30:12.851Z,27.33
